Archiv-/Tagesdaten

--Timestamp---	Temp	Chill	HIndex	Humid	Dewpt	Wind	HiWind	WindDir	Rain	Barom	        Solar	ET	UV
--------------	----	-----	------	-----	-----	----	------	-------	----	-----	        -----	--	--
20080721 00:05	13.9	13.9	13.9	92	12.7	5	10	247	0.00	1014.125	0	0.000	0
20080721 00:10	13.9	13.9	13.9	92	12.7	6	11	247	0.00	1014.226	0	0.000	0
20080721 00:15	13.9	13.9	13.9	92	12.7	5	8	247	0.00	1014.328	0	0.000	0
20080721 00:20	13.9	13.9	13.9	92	12.7	6	18	247	0.00	1014.429	0	0.000	0
20080721 00:25	13.9	13.9	13.9	91	12.5	6	18	270	0.00	1014.700	0	0.000	0
20080721 00:30	13.9	13.9	13.9	90	12.3	10	23	270	0.00	1014.802	0	0.000	0
20080721 00:35	14.0	14.0	14.0	88	12.0	13	27	292	0.00	1014.802	0	0.000	0
20080721 00:40	14.0	14.0	14.0	85	11.5	11	26	292	0.00	1014.768	0	0.000	0
20080721 00:45	13.8	13.8	13.8	83	10.9	11	24	292	0.00	1014.904	0	0.000	0
20080721 00:50	13.5	13.5	13.5	81	10.3	13	24	292	0.00	1015.073	0	0.000	0
20080721 00:55	13.3	13.3	13.3	81	10.1	8	16	292	0.00	1014.971	0	0.000	0
20080721 01:00	13.1	13.1	13.1	81	9.9	8	19	292	0.00	1014.971	0	0.020	0
20080721 01:05	12.8	12.8	12.8	79	9.3	10	23	292	0.00	1015.039	0	0.000	0
20080721 01:10	12.7	12.7	12.7	77	8.7	10	19	292	0.00	1015.073	0	0.000	0
20080721 01:15	12.5	12.5	12.5	78	8.8	8	18	292	0.00	1015.107	0	0.000	0
20080721 01:20	12.3	12.3	12.3	79	8.7	3	11	292	0.00	1014.971	0	0.000	0
20080721 01:25	12.1	12.1	12.1	80	8.8	3	11	292	0.00	1014.904	0	0.000	0
20080721 01:30	11.9	11.9	11.9	82	9.0	2	5	292	0.00	1014.904	0	0.000	0
20080721 01:35	11.8	11.8	11.8	82	8.8	2	5	292	0.00	1015.107	0	0.000	0
20080721 01:40	11.6	11.6	11.6	83	8.8	2	8	292	0.00	1015.107	0	0.000	0
20080721 01:45	11.5	11.5	11.5	83	8.7	3	8	292	0.00	1015.141	0	0.000	0
20080721 01:50	11.5	11.5	11.5	83	8.7	5	10	292	0.00	1015.073	0	0.000	0
20080721 01:55	11.4	11.4	11.4	83	8.7	3	8	292	0.00	1015.174	0	0.000	0
20080721 02:00	11.4	11.4	11.4	83	8.6	3	6	292	0.00	1015.242	0	0.020	0
20080721 02:05	11.3	11.3	11.3	84	8.7	3	8	292	0.00	1015.242	0	0.000	0
20080721 02:10	11.3	11.3	11.3	84	8.7	3	11	292	0.00	1015.310	0	0.000	0
20080721 02:15	11.3	11.3	11.3	83	8.5	3	8	292	0.00	1015.513	0	0.000	0
20080721 02:20	11.3	11.3	11.3	84	8.7	3	5	292	0.00	1015.615	0	0.000	0
20080721 02:25	11.3	11.3	11.3	84	8.7	3	6	292	0.00	1015.682	0	0.000	0
20080721 02:30	11.2	11.2	11.2	84	8.6	2	5	292	0.00	1015.682	0	0.000	0
20080721 02:35	11.2	11.2	11.2	85	8.8	0	5	292	0.00	1015.716	0	0.000	0
20080721 02:40	11.2	11.2	11.2	85	8.7	0	2	292	0.00	1015.784	0	0.000	0
20080721 02:45	11.1	11.1	11.1	85	8.7	0	5	292	0.00	1015.818	0	0.000	0
20080721 02:50	11.1	11.1	11.1	86	8.8	0	5	292	0.00	1015.852	0	0.000	0
20080721 02:55	11.1	11.1	11.1	86	8.8	2	3	292	0.00	1015.953	0	0.000	0
20080721 03:00	11.1	11.1	11.1	85	8.7	2	5	292	0.00	1015.987	0	0.020	0
20080721 03:05	11.2	11.2	11.2	85	8.7	3	8	292	0.00	1015.886	0	0.000	0
20080721 03:10	11.2	11.2	11.2	84	8.6	5	14	292	0.00	1015.784	0	0.000	0
20080721 03:15	11.3	11.3	11.3	84	8.7	5	10	292	0.00	1015.784	0	0.000	0
20080721 03:20	11.3	11.3	11.3	83	8.5	5	11	292	0.00	1015.886	0	0.000	0
20080721 03:25	11.3	11.3	11.3	83	8.5	2	10	292	0.00	1015.852	0	0.000	0
20080721 03:30	11.3	11.3	11.3	82	8.4	5	8	292	0.00	1015.953	0	0.000	0
20080721 03:35	11.3	11.3	11.3	83	8.5	5	11	292	0.00	1016.021	0	0.000	0
20080721 03:40	11.3	11.3	11.3	83	8.5	3	10	292	0.00	1016.089	0	0.000	0
20080721 03:45	11.3	11.3	11.3	83	8.5	2	6	270	0.00	1015.953	0	0.000	0
20080721 03:50	11.3	11.3	11.3	83	8.5	2	5	292	0.00	1015.919	0	0.000	0
20080721 03:55	11.2	11.2	11.2	84	8.6	0	3	292	0.00	1015.886	0	0.000	0
20080721 04:00	11.2	11.2	11.2	84	8.6	0	5	292	0.00	1015.919	0	0.020	0
20080721 04:05	11.1	11.1	11.1	85	8.6	2	3	292	0.00	1016.360	0	0.000	0
20080721 04:10	10.9	10.9	10.9	85	8.5	0	5	292	0.00	1016.461	0	0.000	0
20080721 04:15	10.9	10.9	10.9	85	8.5	0	5	292	0.00	1016.360	0	0.000	0
20080721 04:20	10.8	10.8	10.8	85	8.4	2	3	292	0.00	1016.394	0	0.000	0
20080721 04:25	10.7	10.7	10.7	86	8.5	0	2	292	0.00	1016.190	0	0.000	0
20080721 04:30	10.7	10.7	10.7	86	8.4	0	2	292	0.00	1016.360	0	0.000	0
20080721 04:35	10.7	10.7	10.7	87	8.6	0	5	292	0.00	1016.427	0	0.000	0
20080721 04:40	10.7	10.7	10.7	87	8.6	0	3	292	0.00	1016.461	0	0.000	0
20080721 04:45	10.6	10.6	10.6	87	8.5	0	3	292	0.00	1016.461	0	0.000	0
20080721 04:50	10.6	10.6	10.6	87	8.5	2	3	292	0.00	1016.495	0	0.000	0
20080721 04:55	10.6	10.6	10.6	88	8.7	2	3	292	0.00	1016.461	0	0.000	0
20080721 05:00	10.6	10.6	10.6	88	8.7	0	3	292	0.00	1016.394	0	0.000	0
20080721 05:05	10.6	10.6	10.6	88	8.7	0	3	292	0.00	1016.766	0	0.000	0
20080721 05:10	10.6	10.6	10.6	88	8.7	2	5	270	0.00	1016.732	0	0.000	0
20080721 05:15	10.6	10.6	10.6	88	8.7	2	5	270	0.00	1016.732	0	0.000	0
20080721 05:20	10.6	10.6	10.6	87	8.5	0	2	270	0.00	1016.631	0	0.000	0
20080721 05:25	10.6	10.6	10.6	87	8.5	0	3	270	0.00	1016.766	0	0.000	0
20080721 05:30	10.7	10.7	10.7	87	8.6	0	2	270	0.00	1016.800	0	0.000	0
20080721 05:35	10.7	10.7	10.7	87	8.6	2	5	270	0.00	1016.834	0	0.000	0
20080721 05:40	10.7	10.7	10.7	88	8.8	2	5	270	0.00	1016.834	0	0.000	0
20080721 05:45	10.8	10.8	10.8	88	8.9	2	5	270	0.00	1016.901	0	0.000	0
20080721 05:50	10.8	10.8	10.8	88	8.9	0	3	270	0.00	1016.935	0	0.000	0
20080721 05:55	10.7	10.7	10.7	88	8.8	0	3	270	0.00	1016.935	0	0.000	0
20080721 06:00	10.7	10.7	10.7	88	8.8	0	3	270	0.00	1016.935	0	0.000	0
20080721 06:05	10.8	10.8	10.8	87	8.7	0	0	270	0.00	1017.172	5	0.000	0
20080721 06:10	10.8	10.8	10.8	88	8.9	0	3	270	0.00	1017.172	7	0.000	0
20080721 06:15	10.8	10.8	10.8	87	8.7	0	6	270	0.00	1017.206	9	0.000	0
20080721 06:20	10.8	10.8	10.8	87	8.8	0	2	270	0.00	1017.139	11	0.000	0
20080721 06:25	10.8	10.8	10.8	87	8.8	2	5	270	0.00	1017.342	11	0.000	0
20080721 06:30	10.8	10.8	10.8	88	8.9	2	6	270	0.00	1017.409	10	0.000	0
20080721 06:35	10.8	10.8	10.8	87	8.8	2	6	247	0.00	1017.376	10	0.000	0
20080721 06:40	10.9	10.9	10.9	87	8.8	2	3	247	0.00	1017.240	15	0.000	0
20080721 06:45	10.9	10.9	10.9	86	8.6	0	3	247	0.00	1017.206	23	0.000	0
20080721 06:50	10.9	10.9	10.9	87	8.9	2	3	247	0.00	1017.274	24	0.000	0
20080721 06:55	10.9	10.9	10.9	87	8.9	2	5	247	0.00	1017.342	38	0.000	0
20080721 07:00	11.0	11.0	11.0	85	8.6	2	5	247	0.00	1017.409	22	0.000	0
20080721 07:05	11.1	11.1	11.1	85	8.6	2	5	247	0.00	1017.274	27	0.000	0
20080721 07:10	11.1	11.1	11.1	85	8.6	2	5	247	0.00	1017.342	39	0.000	0
20080721 07:15	11.2	11.2	11.2	85	8.7	2	6	247	0.00	1017.409	37	0.000	0
20080721 07:20	11.2	11.2	11.2	85	8.8	3	6	202	0.00	1017.308	47	0.000	0
20080721 07:25	11.3	11.3	11.3	86	9.0	2	5	202	0.00	1017.342	91	0.000	0
20080721 07:30	11.4	11.4	11.4	85	9.0	0	5	202	0.00	1017.206	114	0.000	0
20080721 07:35	11.6	11.6	11.6	84	8.9	0	3	202	0.00	1017.274	111	0.000	0
20080721 07:40	11.7	11.7	11.7	84	9.1	0	6	202	0.00	1017.409	65	0.000	0
20080721 07:45	11.8	11.8	11.8	83	9.0	2	6	247	0.00	1017.443	75	0.000	0
20080721 07:50	11.8	11.8	11.8	84	9.2	2	5	247	0.00	1017.443	66	0.000	0
20080721 07:55	11.8	11.8	11.8	84	9.2	2	6	247	0.00	1017.511	80	0.000	1
20080721 08:00	12.1	12.1	12.1	83	9.3	0	5	247	0.00	1017.579	319	0.040	1
20080721 08:05	12.4	12.4	12.4	81	9.3	3	8	247	0.00	1017.613	273	0.000	1
20080721 08:10	12.7	12.7	12.7	80	9.4	3	8	247	0.00	1017.477	216	0.000	1
20080721 08:15	12.8	12.8	12.8	77	8.8	3	10	270	0.00	1017.545	159	0.000	1
20080721 08:20	12.9	12.9	12.9	75	8.6	6	13	270	0.00	1017.579	441	0.000	1
20080721 08:25	13.2	13.2	13.2	75	8.9	6	11	270	0.00	1017.545	424	0.000	1
20080721 08:30	13.4	13.4	13.4	74	8.9	5	10	247	0.00	1017.511	337	0.000	1
20080721 08:35	13.6	13.6	13.6	74	9.1	5	14	270	0.00	1017.647	409	0.000	1
20080721 08:40	13.9	13.9	13.9	73	9.1	5	11	270	0.00	1017.545	463	0.000	2
20080721 08:45	14.1	14.1	14.1	71	8.9	6	11	247	0.00	1017.511	461	0.000	2
20080721 08:50	14.0	14.0	14.0	72	9.0	6	16	270	0.00	1017.714	527	0.000	2
20080721 08:55	14.0	14.0	14.0	71	8.8	6	18	292	0.00	1017.782	564	0.000	2
20080721 09:00	14.1	14.1	14.1	72	9.1	3	10	270	0.00	1017.816	351	0.160	2
20080721 09:05	14.2	14.2	14.2	70	8.8	5	10	292	0.00	1017.816	342	0.000	2
20080721 09:10	14.1	14.1	14.1	71	8.9	6	19	270	0.00	1017.917	352	0.000	2
20080721 09:15	14.2	14.2	14.2	71	9.0	3	8	270	0.00	1017.884	524	0.000	2
20080721 09:20	14.3	14.3	14.3	69	8.7	6	16	292	0.00	1017.917	571	0.000	2
20080721 09:25	14.2	14.2	14.2	70	8.8	6	14	270	0.00	1018.019	291	0.000	2
20080721 09:30	14.2	14.2	14.2	70	8.8	5	11	270	0.00	1018.053	220	0.000	2
20080721 09:35	14.2	14.2	14.2	69	8.6	5	13	292	0.00	1018.019	606	0.000	3
20080721 09:40	14.3	14.3	14.3	69	8.7	5	11	270	0.00	1018.019	598	0.000	2
20080721 09:45	14.4	14.4	14.4	68	8.6	6	16	270	0.00	1018.019	602	0.000	3
20080721 09:50	14.6	14.6	14.6	68	8.7	5	14	247	0.00	1018.019	608	0.000	3
20080721 09:55	14.7	14.7	14.7	67	8.6	5	14	270	0.00	1017.951	620	0.000	3
20080721 10:00	14.9	14.9	14.9	67	8.8	6	14	270	0.00	1017.782	684	0.220	3
20080721 10:05	15.0	15.0	15.0	67	8.9	8	18	292	0.00	1017.985	609	0.000	3
20080721 10:10	14.8	14.8	14.8	67	8.8	11	26	292	0.00	1017.985	308	0.000	3
20080721 10:15	14.8	14.8	14.8	68	8.9	8	19	270	0.00	1017.985	408	0.000	3
20080721 10:20	15.0	15.0	15.0	66	8.7	10	21	270	0.00	1017.951	758	0.000	4
20080721 10:25	15.3	15.3	15.3	66	9.0	8	18	292	0.00	1017.850	684	0.000	4
20080721 10:30	15.3	15.3	15.3	64	8.5	8	26	270	0.00	1017.917	202	0.000	4
20080721 10:35	15.3	15.3	15.3	64	8.6	11	23	270	0.00	1017.884	403	0.000	4
20080721 10:40	15.6	15.6	15.6	64	8.8	6	16	270	0.00	1017.850	837	0.000	4
20080721 10:45	15.7	15.7	15.7	64	8.9	10	19	270	0.00	1017.917	768	0.000	4
20080721 10:50	15.7	15.7	15.7	61	8.2	11	21	270	0.00	1017.917	776	0.000	5
20080721 10:55	15.8	15.8	15.8	62	8.6	11	23	292	0.00	1017.816	955	0.000	5
20080721 11:00	15.9	15.9	15.9	62	8.7	10	23	270	0.00	1017.884	327	0.280	4
20080721 11:05	16.2	16.2	16.2	60	8.4	10	21	270	0.00	1017.951	621	0.000	5
20080721 11:10	16.1	16.1	16.1	60	8.3	6	23	270	0.00	1017.951	408	0.000	3
20080721 11:15	15.8	15.8	15.8	63	8.8	5	11	270	0.00	1017.951	278	0.000	2
20080721 11:20	15.7	15.7	15.7	61	8.2	8	23	270	0.00	1018.154	319	0.000	3
20080721 11:25	15.5	15.5	15.5	63	8.5	10	21	292	0.00	1018.121	320	0.000	3
20080721 11:30	15.3	15.3	15.3	62	8.1	10	21	270	0.00	1017.985	315	0.000	3
20080721 11:35	15.2	15.2	15.2	60	7.5	10	18	270	0.00	1017.985	329	0.000	4
20080721 11:40	15.6	15.6	15.6	57	7.1	11	23	292	0.00	1017.985	816	0.000	6
20080721 11:45	15.9	15.9	15.9	54	6.6	10	18	270	0.00	1017.850	818	0.000	6
20080721 11:50	16.1	16.1	16.1	54	6.7	11	26	270	0.00	1017.985	907	0.000	7
20080721 11:55	16.2	16.2	16.2	55	7.1	11	24	270	0.00	1017.884	646	0.000	5
20080721 12:00	16.2	16.2	16.2	58	7.9	8	16	270	0.00	1017.917	746	0.280	6
20080721 12:05	16.2	16.2	16.2	57	7.7	8	24	270	0.00	1017.951	433	0.000	4
20080721 12:10	16.2	16.2	16.2	55	7.2	8	19	270	0.00	1017.884	411	0.000	4
20080721 12:15	15.9	15.9	15.9	54	6.6	11	23	270	0.00	1017.917	240	0.000	4
20080721 12:20	15.8	15.8	15.8	53	6.3	11	19	292	0.00	1017.917	873	0.000	7
20080721 12:25	16.0	16.0	16.0	54	6.7	10	21	270	0.00	1017.850	895	0.000	6
20080721 12:30	15.9	15.9	15.9	55	6.9	10	19	270	0.00	1017.782	345	0.000	5
20080721 12:35	16.2	16.2	16.2	56	7.4	10	23	292	0.00	1017.714	925	0.000	7
20080721 12:40	16.5	16.5	16.5	57	7.9	11	21	270	0.00	1017.579	873	0.000	7
20080721 12:45	16.8	16.8	16.8	55	7.7	10	21	270	0.00	1017.545	893	0.000	7
20080721 12:50	16.4	16.4	16.4	53	6.8	14	27	292	0.00	1017.545	235	0.000	5
20080721 12:55	16.2	16.2	16.2	55	7.2	11	29	270	0.00	1017.782	588	0.000	6
20080721 13:00	16.8	16.8	16.8	54	7.5	10	19	270	0.00	1017.579	987	0.320	8
20080721 13:05	17.4	17.4	17.4	53	7.7	11	29	247	0.00	1017.714	1041	0.000	8
20080721 13:10	17.7	17.7	17.7	52	7.7	13	29	270	0.00	1017.680	1078	0.000	7
20080721 13:15	17.9	17.9	17.9	52	7.9	11	29	247	0.00	1017.714	953	0.000	8
20080721 13:20	17.8	17.8	17.8	50	7.3	13	26	292	0.00	1017.816	912	0.000	7
20080721 13:25	17.7	17.7	17.7	50	7.1	14	31	270	0.00	1017.748	909	0.000	8
20080721 13:30	17.8	17.8	17.8	50	7.3	11	24	270	0.00	1017.680	898	0.000	8
20080721 13:35	17.6	17.6	17.6	50	7.1	14	32	270	0.00	1017.680	587	0.000	5
20080721 13:40	17.0	17.0	17.0	56	8.2	8	19	292	0.00	1017.680	236	0.000	3
20080721 13:45	16.4	16.4	16.4	58	8.1	8	19	292	0.00	1017.850	467	0.000	5
20080721 13:50	16.7	16.7	16.7	54	7.3	8	21	292	0.00	1017.714	1065	0.000	7
20080721 13:55	17.0	17.0	17.0	58	8.7	10	23	292	0.00	1017.748	1056	0.000	8
20080721 14:00	17.4	17.4	17.4	55	8.3	11	24	292	0.00	1017.647	1204	0.400	7
20080721 14:05	17.6	17.6	17.6	51	7.3	13	27	270	0.00	1017.680	975	0.000	8
20080721 14:10	17.6	17.6	17.6	52	7.6	8	27	270	0.00	1017.443	901	0.000	7
20080721 14:15	17.7	17.7	17.7	51	7.4	14	27	292	0.00	1017.511	893	0.000	7
20080721 14:20	17.8	17.8	17.8	48	6.6	16	27	270	0.00	1017.477	248	0.000	5
20080721 14:25	17.8	17.8	17.8	49	6.9	10	21	292	0.00	1017.579	926	0.000	7
20080721 14:30	17.9	17.9	17.9	48	6.8	16	27	270	0.00	1017.477	950	0.000	7
20080721 14:35	17.9	17.9	17.9	47	6.4	16	31	292	0.00	1017.511	1067	0.000	6
20080721 14:40	17.8	17.8	17.8	48	6.7	18	34	270	0.00	1017.613	1044	0.000	5
20080721 14:45	17.8	17.8	17.8	47	6.3	10	23	270	0.00	1017.477	343	0.000	4
20080721 14:50	17.9	17.9	17.9	48	6.8	11	23	270	0.00	1017.477	423	0.000	5
20080721 14:55	17.7	17.7	17.7	47	6.3	16	27	270	0.00	1017.545	298	0.000	3
20080721 15:00	17.5	17.5	17.5	47	6.1	14	29	270	0.00	1017.545	487	0.380	4
20080721 15:05	17.7	17.7	17.7	47	6.3	16	29	270	0.00	1017.545	360	0.000	4
20080721 15:10	17.6	17.6	17.6	47	6.1	16	26	270	0.00	1017.613	397	0.000	3
20080721 15:15	17.4	17.4	17.4	48	6.3	14	29	270	0.00	1017.714	424	0.000	4
20080721 15:20	17.3	17.3	17.3	48	6.2	13	23	270	0.00	1017.545	393	0.000	4
20080721 15:25	17.2	17.2	17.2	48	6.1	16	26	270	0.00	1017.647	408	0.000	4
20080721 15:30	17.1	17.1	17.1	49	6.3	8	19	270	0.00	1017.579	342	0.000	3
20080721 15:35	17.3	17.3	17.3	49	6.5	8	21	270	0.00	1017.647	353	0.000	3
20080721 15:40	17.4	17.4	17.4	49	6.6	8	26	270	0.00	1017.443	355	0.000	3
20080721 15:45	17.4	17.4	17.4	46	5.6	16	26	270	0.00	1017.613	369	0.000	3
20080721 15:50	17.6	17.6	17.6	47	6.1	14	27	270	0.00	1017.376	439	0.000	4
20080721 15:55	17.8	17.8	17.8	47	6.4	10	21	270	0.00	1017.443	566	0.000	4
20080721 16:00	18.1	18.1	18.1	47	6.6	11	26	292	0.00	1017.443	492	0.280	4
20080721 16:05	18.0	18.0	18.0	46	6.2	10	23	270	0.00	1017.613	416	0.000	4
20080721 16:10	18.1	18.1	18.1	50	7.5	11	18	270	0.00	1017.613	413	0.000	3
20080721 16:15	17.7	17.7	17.7	51	7.4	10	24	292	0.00	1017.748	429	0.000	3
20080721 16:20	17.6	17.6	17.6	52	7.6	11	23	292	0.00	1017.782	504	0.000	4
20080721 16:25	17.3	17.3	17.3	53	7.7	8	16	292	0.00	1017.748	566	0.000	4
20080721 16:30	17.4	17.4	17.4	51	7.2	10	23	292	0.00	1017.680	671	0.000	4
20080721 16:35	17.6	17.6	17.6	51	7.3	8	16	292	0.00	1017.714	641	0.000	4
20080721 16:40	17.6	17.6	17.6	52	7.6	10	23	292	0.00	1017.714	638	0.000	4
20080721 16:45	17.9	17.9	17.9	52	7.9	8	23	292	0.00	1017.647	628	0.000	3
20080721 16:50	17.8	17.8	17.8	50	7.3	14	29	292	0.00	1017.647	615	0.000	3
20080721 16:55	18.0	18.0	18.0	51	7.7	11	19	292	0.00	1017.647	594	0.000	3
20080721 17:00	18.1	18.1	18.1	50	7.5	8	24	292	0.00	1017.579	603	0.300	3
20080721 17:05	18.3	18.3	18.3	49	7.4	13	24	270	0.00	1017.545	609	0.000	3
20080721 17:10	18.2	18.2	18.2	49	7.3	14	24	270	0.00	1017.511	581	0.000	2
20080721 17:15	17.9	17.9	17.9	50	7.3	8	16	270	0.00	1017.613	179	0.000	2
20080721 17:20	17.8	17.8	17.8	51	7.5	11	24	292	0.00	1017.579	615	0.000	2
20080721 17:25	17.7	17.7	17.7	53	8.0	8	14	292	0.00	1017.613	160	0.000	2
20080721 17:30	18.2	18.2	18.2	50	7.6	6	14	292	0.00	1017.409	605	0.000	2
20080721 17:35	18.3	18.3	18.3	48	7.1	13	24	270	0.00	1017.477	190	0.000	2
20080721 17:40	18.2	18.2	18.2	48	7.0	8	18	270	0.00	1017.511	448	0.000	2
20080721 17:45	18.1	18.1	18.1	47	6.6	13	23	292	0.00	1017.613	220	0.000	2
20080721 17:50	17.6	17.6	17.6	49	6.8	10	26	292	0.00	1017.613	164	0.000	1
20080721 17:55	17.2	17.2	17.2	53	7.5	6	18	292	0.00	1017.579	192	0.000	1
20080721 18:00	17.1	17.1	17.1	53	7.4	5	10	270	0.00	1017.545	212	0.220	1
20080721 18:05	17.2	17.2	17.2	53	7.6	3	10	292	0.00	1017.579	253	0.000	1
20080721 18:10	17.4	17.4	17.4	50	6.9	6	14	292	0.00	1017.579	380	0.000	1
20080721 18:15	17.7	17.7	17.7	49	6.9	10	23	292	0.00	1017.477	398	0.000	1
20080721 18:20	17.6	17.6	17.6	48	6.5	8	18	292	0.00	1017.579	375	0.000	1
20080721 18:25	17.3	17.3	17.3	49	6.5	8	18	292	0.00	1017.680	87	0.000	1
20080721 18:30	16.9	16.9	16.9	51	6.7	8	18	270	0.00	1017.714	129	0.000	1
20080721 18:35	16.8	16.8	16.8	51	6.6	10	23	292	0.00	1017.748	245	0.000	1
20080721 18:40	17.0	17.0	17.0	52	7.1	11	21	292	0.00	1017.816	412	0.000	1
20080721 18:45	17.1	17.1	17.1	52	7.1	6	16	292	0.00	1017.850	339	0.000	1
20080721 18:50	17.3	17.3	17.3	52	7.3	6	16	292	0.00	1017.680	352	0.000	1
20080721 18:55	17.3	17.3	17.3	51	7.1	8	23	292	0.00	1017.714	286	0.000	1
20080721 19:00	17.2	17.2	17.2	51	6.9	8	18	292	0.00	1017.816	277	0.160	1
20080721 19:05	17.1	17.1	17.1	52	7.1	8	14	292	0.00	1017.613	258	0.000	1
20080721 19:10	17.1	17.1	17.1	53	7.4	8	16	292	0.00	1017.748	240	0.000	0
20080721 19:15	17.0	17.0	17.0	52	7.1	8	19	292	0.00	1017.816	226	0.000	0
20080721 19:20	16.7	16.7	16.7	54	7.3	10	21	292	0.00	1017.850	146	0.000	0
20080721 19:25	16.5	16.5	16.5	54	7.2	10	19	292	0.00	1017.850	63	0.000	0
20080721 19:30	16.4	16.4	16.4	55	7.3	8	18	270	0.00	1017.985	52	0.000	0
20080721 19:35	16.3	16.3	16.3	55	7.2	8	16	270	0.00	1018.222	37	0.000	0
20080721 19:40	16.0	16.0	16.0	56	7.2	6	11	270	0.00	1018.222	29	0.000	0
20080721 19:45	15.8	15.8	15.8	56	7.0	5	10	292	0.00	1018.222	32	0.000	0
20080721 19:50	15.5	15.5	15.5	56	6.8	6	14	270	0.00	1018.188	33	0.000	0
20080721 19:55	15.3	15.3	15.3	56	6.5	8	16	292	0.00	1018.290	23	0.000	0
20080721 20:00	15.0	15.0	15.0	58	6.8	5	10	270	0.00	1018.459	15	0.080	0
20080721 20:05	15.0	15.0	15.0	58	6.8	6	18	292	0.00	1018.290	16	0.000	0
20080721 20:10	14.8	14.8	14.8	59	6.8	6	11	292	0.00	1018.324	14	0.000	0
20080721 20:15	14.6	14.6	14.6	59	6.7	6	13	292	0.00	1018.493	12	0.000	0
20080721 20:20	14.4	14.4	14.4	60	6.8	5	10	315	0.00	1018.459	10	0.000	0
20080721 20:25	14.3	14.3	14.3	60	6.7	5	10	292	0.00	1018.561	11	0.000	0
20080721 20:30	14.3	14.3	14.3	61	6.9	5	11	270	0.00	1018.595	9	0.000	0
20080721 20:35	14.2	14.2	14.2	60	6.5	5	10	292	0.00	1018.561	8	0.000	0
20080721 20:40	14.1	14.1	14.1	59	6.2	5	11	292	0.00	1018.629	5	0.000	0
20080721 20:45	13.9	13.9	13.9	59	6.1	5	10	270	0.00	1018.629	2	0.000	0
20080721 20:50	13.8	13.8	13.8	60	6.2	5	16	270	0.00	1018.595	0	0.000	0
20080721 20:55	13.7	13.7	13.7	60	6.1	3	8	270	0.00	1018.595	0	0.000	0
20080721 21:00	13.6	13.6	13.6	61	6.2	2	8	270	0.00	1018.662	0	0.020	0
20080721 21:05	13.5	13.5	13.5	62	6.4	3	6	270	0.00	1018.696	0	0.000	0
20080721 21:10	13.3	13.3	13.3	64	6.7	3	13	270	0.00	1018.696	0	0.000	0
20080721 21:15	13.2	13.2	13.2	64	6.5	5	8	270	0.00	1018.662	0	0.000	0
20080721 21:20	13.1	13.1	13.1	65	6.6	5	8	270	0.00	1018.696	0	0.000	0
20080721 21:25	12.9	12.9	12.9	65	6.5	3	5	270	0.00	1018.798	0	0.000	0
20080721 21:30	12.9	12.9	12.9	66	6.7	3	8	292	0.00	1018.798	0	0.000	0
20080721 21:35	12.8	12.8	12.8	67	6.9	3	6	270	0.00	1018.798	0	0.000	0
20080721 21:40	12.8	12.8	12.8	66	6.6	3	8	270	0.00	1018.899	0	0.000	0
20080721 21:45	12.8	12.8	12.8	66	6.6	3	6	270	0.00	1018.933	0	0.000	0
20080721 21:50	12.8	12.8	12.8	65	6.4	3	6	247	0.00	1019.035	0	0.000	0
20080721 21:55	12.8	12.8	12.8	64	6.2	3	6	247	0.00	1019.103	0	0.000	0
20080721 22:00	12.8	12.8	12.8	65	6.4	2	6	247	0.00	1019.069	0	0.020	0
20080721 22:05	12.8	12.8	12.8	65	6.4	2	6	270	0.00	1019.001	0	0.000	0
20080721 22:10	12.8	12.8	12.8	65	6.4	3	8	270	0.00	1019.103	0	0.000	0
20080721 22:15	12.8	12.8	12.8	65	6.4	2	6	270	0.00	1019.103	0	0.000	0
20080721 22:20	12.8	12.8	12.8	65	6.4	3	6	270	0.00	1019.137	0	0.000	0
20080721 22:25	12.8	12.8	12.8	65	6.4	3	8	270	0.00	1019.204	0	0.000	0
20080721 22:30	12.9	12.9	12.9	65	6.5	3	8	270	0.00	1019.272	0	0.000	0
20080721 22:35	12.9	12.9	12.9	65	6.5	3	10	270	0.00	1019.238	0	0.000	0
20080721 22:40	12.9	12.9	12.9	66	6.7	6	16	270	0.00	1019.204	0	0.000	0
20080721 22:45	13.0	13.0	13.0	66	6.8	8	24	270	0.00	1019.238	0	0.000	0
20080721 22:50	13.0	13.0	13.0	66	6.8	8	16	270	0.00	1019.272	0	0.000	0
20080721 22:55	12.9	12.9	12.9	66	6.7	8	16	270	0.00	1019.306	0	0.000	0
20080721 23:00	12.9	12.9	12.9	65	6.5	8	18	270	0.00	1019.238	0	0.040	0
20080721 23:05	12.9	12.9	12.9	66	6.7	8	18	270	0.00	1019.272	0	0.000	0
20080721 23:10	12.9	12.9	12.9	66	6.7	6	14	270	0.00	1019.204	0	0.000	0
20080721 23:15	12.8	12.8	12.8	67	6.9	6	10	270	0.00	1019.238	0	0.000	0
20080721 23:20	12.8	12.8	12.8	67	6.9	5	11	270	0.00	1019.238	0	0.000	0
20080721 23:25	12.8	12.8	12.8	67	6.8	5	8	270	0.00	1019.340	0	0.000	0
20080721 23:30	12.7	12.7	12.7	68	7.0	3	8	270	0.00	1019.306	0	0.000	0
20080721 23:35	12.7	12.7	12.7	67	6.7	5	13	270	0.00	1019.306	0	0.000	0
20080721 23:40	12.7	12.7	12.7	67	6.7	6	16	247	0.00	1019.272	0	0.000	0
20080721 23:45	12.7	12.7	12.7	66	6.5	6	14	270	0.00	1019.340	0	0.000	0
20080721 23:50	12.7	12.7	12.7	65	6.3	8	21	270	0.00	1019.374	0	0.000	0
20080721 23:55	12.7	12.7	12.7	64	6.1	6	14	270	0.00	1019.374	0	0.000	0
20080721 24:00	12.7	12.7	12.7	65	6.3	6	16	270	0.00	1019.340	0	0.040	0



Please note the license to use and transfer of this data:
http://creativecommons.org/licenses/by-nc-sa/3.0/deed.en

Bitte beachten sie die Lizenz zur Verwertung und Weitergabe der Daten:
http://creativecommons.org/licenses/by-nc-sa/3.0/deed.de

zurück zur Übersicht der Archivdaten (Monats und Tagesdaten)

Cookies helfen bei der Bereitstellung von Inhalten. Durch die Nutzung dieser Seiten erklärst du dich damit einverstanden, dass Cookies auf deinem Rechner gespeichert werden. Weitere Information